Arbutus, Maryland
Current Conditions -  °F | °C
As of 4:54 PM on Sunday 23 Nov 2014 (Local Time) from KBWI Reporting Station
Broken Clouds Broken Clouds  
Wind Chill: 50°   Ceiling: 20000
Heat Index: 50°   Visibility: 10mi
Dew Point: 33°   Wind: 9mph
Humidity: 52%   Direction: 70°ENE
Pressure: 30.08"   Gusts: NA
Location:  39.2187°N, 76.722°W
Report Text: KBWI 232154Z 07008KT 10SM FEW180 BKN200 BKN250 10/01 A3008 RMK AO2 SLP185 T01000006
Loading
Personal Weather Stations






























Interactive Weather Map New forecast layout! Learn more

10-Day Weather Forecast

Advertisements
Track Severe Weather on mobile